Temp: 14.4°C   Baro: 1008.4mb
  Wind: 4.9mph   Dir: W (273°)
  Rain: 6.4mm (0.0mm/hr)
  Sun: 374W/m2  Humidity: 90%

Historic data

Bath Spa Weather Station Historical Data
Daily Summary for April 16, 2024 Units:  English    Metric   Both
Daily Weekly Monthly Yearly Custom
  High: Low: Average:
Temperature: 57 °F 42.3 °F 48.9 °F
Dew Point: 41.9 °F 36 °F 39.4 °F
Humidity: 81% 49.6% 70%
Wind Speed: 13mph 0mph 6.6mph
Wind Gust: 24mph - -
Wind- - WNW
Pressure: 30.10 in 29.90 in -
Precipitation: 0.00 in    
Historical Graphs
 
 
Tabular Data for April 16, 2024
Time Temperature Dew Point Pressure Wind Wind Speed Wind Gust Humidity Rainfall Rate (Hourly) solar
00:09 45.8 °F 38.6 °F 29.90 in West 6.8 mph 19 mph 76% 0.00 in 0 W/m2
00:14 45.6 °F 38.4 °F 29.90 in WNW 8.6 mph 22 mph 76% 0.00 in 0 W/m2
00:19 45.5 °F 38.3 °F 29.90 in West 9.8 mph 15 mph 76% 0.00 in 0 W/m2
00:24 45.5 °F 38.7 °F 29.90 in WNW 9.7 mph 18 mph 77% 0.00 in 0 W/m2
00:29 45.7 °F 38.8 °F 29.90 in WNW 10.2 mph 22 mph 77% 0.00 in 0 W/m2
00:34 45.7 °F 38.8 °F 29.90 in WNW 9.4 mph 16 mph 77% 0.00 in 0 W/m2
00:39 45.7 °F 38.8 °F 29.90 in WNW 7.6 mph 18 mph 77% 0.00 in 0 W/m2
00:44 45.7 °F 38.8 °F 29.91 in WNW 7.8 mph 15 mph 77% 0.00 in 0 W/m2
00:49 45.9 °F 39 °F 29.91 in WNW 8 mph 15 mph 77% 0.00 in 0 W/m2
00:54 45.8 °F 39 °F 29.91 in West 10.7 mph 20 mph 77% 0.00 in 0 W/m2
00:59 45.7 °F 38.8 °F 29.91 in West 11.4 mph 21 mph 77% 0.00 in 0 W/m2
01:04 45.7 °F 39 °F 29.91 in WNW 7.5 mph 19 mph 77.6% 0.00 in 0 W/m2
01:09 45.7 °F 39.2 °F 29.91 in WNW 10.4 mph 19 mph 78% 0.00 in 0 W/m2
01:14 45.7 °F 39.2 °F 29.91 in WNW 7.6 mph 18 mph 78% 0.00 in 0 W/m2
01:19 45.5 °F 39 °F 29.91 in West 8.6 mph 18 mph 78% 0.00 in 0 W/m2
01:24 45.3 °F 38.8 °F 29.91 in West 6.8 mph 14 mph 78% 0.00 in 0 W/m2
01:29 45.3 °F 38.8 °F 29.91 in West 9.6 mph 16 mph 78% 0.00 in 0 W/m2
01:34 45.3 °F 38.8 °F 29.91 in WNW 8.2 mph 15 mph 78% 0.00 in 0 W/m2
01:39 45.1 °F 38.8 °F 29.91 in West 7.6 mph 17 mph 78.2% 0.00 in 0 W/m2
01:44 45.1 °F 39 °F 29.90 in West 8 mph 17 mph 79% 0.00 in 0 W/m2
01:49 45.1 °F 39 °F 29.91 in WNW 9.2 mph 15 mph 79% 0.00 in 0 W/m2
01:54 45.1 °F 38.9 °F 29.91 in West 7.4 mph 13 mph 79% 0.00 in 0 W/m2
01:59 45 °F 38.8 °F 29.91 in West 6 mph 13 mph 79% 0.00 in 0 W/m2
02:04 45 °F 38.8 °F 29.91 in West 7.1 mph 14 mph 79% 0.00 in 0 W/m2
02:09 44.8 °F 38.7 °F 29.91 in West 6.8 mph 14 mph 79% 0.00 in 0 W/m2
02:14 44.8 °F 38.7 °F 29.91 in WNW 8.8 mph 14 mph 79% 0.00 in 0 W/m2
02:19 44.7 °F 38.6 °F 29.91 in West 5.4 mph 11 mph 79% 0.00 in 0 W/m2
02:24 44.6 °F 38.5 °F 29.91 in West 6.4 mph 10 mph 79% 0.00 in 0 W/m2
02:29 44.5 °F 38.4 °F 29.91 in WNW 6 mph 13 mph 79% 0.00 in 0 W/m2
02:34 44.8 °F 38.7 °F 29.91 in West 4.9 mph 12 mph 79% 0.00 in 0 W/m2
02:39 44.9 °F 38.7 °F 29.91 in West 6.2 mph 11 mph 79% 0.00 in 0 W/m2
02:44 45 °F 38.8 °F 29.91 in WNW 6.4 mph 12 mph 79% 0.00 in 0 W/m2
02:49 45.2 °F 39.1 °F 29.91 in West 5.5 mph 13 mph 79% 0.00 in 0 W/m2
02:54 45.3 °F 39.2 °F 29.91 in WNW 7.4 mph 13 mph 79% 0.00 in 0 W/m2
02:59 45.5 °F 39.4 °F 29.91 in WNW 5.5 mph 12 mph 79% 0.00 in 0 W/m2
03:04 45.5 °F 39.4 °F 29.91 in West 4.8 mph 13 mph 79% 0.00 in 0 W/m2
03:09 45.3 °F 39.2 °F 29.91 in WNW 4.8 mph 10 mph 79% 0.00 in 0 W/m2
03:14 45.3 °F 39.2 °F 29.91 in West 5.8 mph 9 mph 79% 0.00 in 0 W/m2
03:19 45.3 °F 39.4 °F 29.91 in West 5.9 mph 11 mph 79.4% 0.00 in 0 W/m2
03:24 45.3 °F 39.6 °F 29.91 in WNW 7.8 mph 11 mph 80% 0.00 in 0 W/m2
03:29 45.3 °F 39.6 °F 29.92 in West 5.2 mph 10 mph 80% 0.00 in 0 W/m2
03:34 45.3 °F 39.6 °F 29.92 in WNW 3.6 mph 7 mph 80% 0.00 in 0 W/m2
03:39 45.3 °F 39.6 °F 29.92 in West 3.7 mph 9 mph 80% 0.00 in 0 W/m2
03:44 45.2 °F 39.5 °F 29.92 in West 5.9 mph 9 mph 80% 0.00 in 0 W/m2
03:49 45.1 °F 39.4 °F 29.92 in West 5.5 mph 9 mph 80% 0.00 in 0 W/m2
03:54 45.2 °F 39.5 °F 29.92 in West 5.8 mph 13 mph 80% 0.00 in 0 W/m2
03:59 45.3 °F 39.6 °F 29.92 in WNW 7.1 mph 13 mph 80% 0.00 in 0 W/m2
04:04 45.3 °F 39.6 °F 29.92 in West 6.4 mph 12 mph 80% 0.00 in 0 W/m2
04:09 45.3 °F 39.6 °F 29.92 in West 6 mph 12 mph 80% 0.00 in 0 W/m2
04:14 45.3 °F 39.6 °F 29.92 in West 6.7 mph 12 mph 80% 0.00 in 0 W/m2
04:19 45.3 °F 39.6 °F 29.92 in West 5.9 mph 12 mph 80% 0.00 in 0 W/m2
04:24 45.3 °F 39.6 °F 29.93 in WNW 4.8 mph 11 mph 80% 0.00 in 0 W/m2
04:29 45.3 °F 39.6 °F 29.93 in West 5.8 mph 12 mph 80% 0.00 in 0 W/m2
04:34 45.3 °F 39.6 °F 29.93 in West 6.3 mph 9 mph 80% 0.00 in 0 W/m2
04:39 45.3 °F 39.6 °F 29.93 in West 5.6 mph 10 mph 80% 0.00 in 0 W/m2
04:44 45.5 °F 39.7 °F 29.92 in West 7.8 mph 14 mph 80% 0.00 in 0 W/m2
04:49 45.8 °F 40 °F 29.92 in West 7.4 mph 17 mph 80% 0.00 in 0 W/m2
04:54 46.1 °F 40 °F 29.92 in WNW 10.8 mph 18 mph 79% 0.00 in 0 W/m2
04:59 46.2 °F 39.6 °F 29.93 in WNW 9.8 mph 19 mph 77.8% 0.00 in 0 W/m2
05:04 46.2 °F 39.4 °F 29.93 in West 4.9 mph 15 mph 77% 0.00 in 0 W/m2
05:09 46.1 °F 39.3 °F 29.93 in West 7.6 mph 13 mph 77% 0.00 in 0 W/m2
05:14 46 °F 39.2 °F 29.93 in West 5.9 mph 12 mph 77% 0.00 in 0 W/m2
05:19 45.9 °F 39.1 °F 29.93 in West 7.8 mph 12 mph 77% 0.00 in 0 W/m2
05:24 45.9 °F 39.4 °F 29.93 in WNW 5.9 mph 13 mph 78% 0.00 in 0 W/m2
05:29 45.9 °F 39.4 °F 29.93 in WNW 7.1 mph 14 mph 78% 0.00 in 0 W/m2
05:34 45.9 °F 39.4 °F 29.93 in WNW 6.8 mph 13 mph 78% 0.00 in 0 W/m2
05:39 46 °F 39.6 °F 29.93 in WNW 8.3 mph 15 mph 78% 0.00 in 0 W/m2
05:44 46.1 °F 39.7 °F 29.93 in WNW 7.1 mph 11 mph 78% 0.00 in 0 W/m2
05:49 46.2 °F 39.6 °F 29.93 in West 7 mph 16 mph 77.8% 0.00 in 0 W/m2
05:54 46.2 °F 39.7 °F 29.93 in WNW 9 mph 17 mph 78% 0.00 in 0 W/m2
05:59 46 °F 39.5 °F 29.93 in WNW 8.6 mph 15 mph 77.8% 0.00 in 0 W/m2
06:04 45.9 °F 39.4 °F 29.93 in West 10.2 mph 18 mph 78% 0.00 in 0 W/m2
06:09 45.7 °F 39.4 °F 29.93 in West 9.2 mph 15 mph 78.6% 0.00 in 7 W/m2
06:14 45.4 °F 39.4 °F 29.93 in West 7.8 mph 14 mph 79.2% 0.00 in 7 W/m2
06:19 45.2 °F 39.4 °F 29.93 in West 8.4 mph 12 mph 79.6% 0.00 in 9 W/m2
06:24 45.1 °F 39.4 °F 29.93 in West 6.8 mph 12 mph 80% 0.00 in 11 W/m2
06:29 45.1 °F 39.3 °F 29.93 in West 4.9 mph 12 mph 80% 0.00 in 12 W/m2
06:34 45 °F 39.3 °F 29.94 in WNW 5.4 mph 12 mph 80.2% 0.00 in 14 W/m2
06:39 45 °F 39.4 °F 29.94 in West 5.6 mph 10 mph 80.6% 0.00 in 16 W/m2
06:44 45 °F 39.6 °F 29.95 in West 6 mph 12 mph 81% 0.00 in 23 W/m2
06:49 45.2 °F 39.6 °F 29.95 in West 4.4 mph 12 mph 80.4% 0.00 in 30 W/m2
06:54 45.3 °F 39.6 °F 29.95 in West 4.9 mph 11 mph 80% 0.00 in 37 W/m2
06:59 45.6 °F 39.8 °F 29.95 in WNW 3.7 mph 13 mph 80% 0.00 in 35 W/m2
07:04 45.9 °F 39.9 °F 29.96 in West 6.2 mph 12 mph 79.2% 0.00 in 40 W/m2
07:09 46.1 °F 40 °F 29.96 in West 3.3 mph 8 mph 79% 0.00 in 54 W/m2
07:14 46.2 °F 39.7 °F 29.96 in West 5.7 mph 13 mph 78% 0.00 in 69 W/m2
07:19 46.3 °F 39.8 °F 29.96 in West 5 mph 13 mph 78% 0.00 in 67 W/m2
07:24 46.5 °F 39.8 °F 29.96 in WNW 7.2 mph 12 mph 77.4% 0.00 in 54 W/m2
07:29 46.6 °F 39.7 °F 29.96 in WNW 3.1 mph 8 mph 77% 0.00 in 54 W/m2
07:34 46.6 °F 39.7 °F 29.96 in West 3.6 mph 9 mph 77% 0.00 in 60 W/m2
07:39 46.6 °F 39.7 °F 29.97 in West 4.4 mph 11 mph 77% 0.00 in 70 W/m2
07:44 46.7 °F 39.8 °F 29.97 in WNW 8.8 mph 15 mph 77% 0.00 in 86 W/m2
07:49 46.8 °F 39.9 °F 29.97 in NW 10.5 mph 15 mph 77% 0.00 in 95 W/m2
07:54 46.6 °F 39.6 °F 29.97 in WNW 5.6 mph 17 mph 76.8% 0.00 in 107 W/m2
07:59 46.6 °F 39.9 °F 29.98 in West 4.9 mph 13 mph 77.6% 0.00 in 116 W/m2
08:04 46.4 °F 39.9 °F 29.97 in WNW 6.4 mph 12 mph 78% 0.00 in 148 W/m2
08:09 46.5 °F 40 °F 29.98 in WNW 9 mph 12 mph 78% 0.00 in 155 W/m2
08:14 46.7 °F 40.3 °F 29.98 in West 5.7 mph 12 mph 78% 0.00 in 190 W/m2
08:19 47.1 °F 40.7 °F 29.98 in West 8 mph 14 mph 78.2% 0.00 in 345 W/m2
08:24 47.2 °F 40.7 °F 29.98 in WNW 10.2 mph 17 mph 78% 0.00 in 360 W/m2
08:29 47.3 °F 40.8 °F 29.98 in WNW 11.4 mph 20 mph 78% 0.00 in 374 W/m2
08:34 47.3 °F 40.8 °F 29.98 in WNW 7.2 mph 18 mph 78% 0.00 in 299 W/m2
08:39 47 °F 40.5 °F 29.98 in WNW 7.6 mph 18 mph 78% 0.00 in 417 W/m2
08:44 47.1 °F 40.6 °F 29.98 in West 9.4 mph 15 mph 78% 0.00 in 438 W/m2
08:49 47.4 °F 40.9 °F 29.98 in WNW 12 mph 16 mph 78% 0.00 in 297 W/m2
08:54 47.7 °F 41.2 °F 29.98 in West 10.8 mph 17 mph 78% 0.00 in 234 W/m2
08:59 47.7 °F 41.1 °F 29.98 in WNW 9.4 mph 18 mph 77.8% 0.00 in 209 W/m2
09:04 47.8 °F 41 °F 29.98 in West 10 mph 18 mph 77% 0.00 in 179 W/m2
09:09 47.9 °F 40.7 °F 29.98 in NW 8.6 mph 13 mph 76% 0.00 in 118 W/m2
09:14 47.9 °F 40.4 °F 29.98 in WNW 10.9 mph 19 mph 75.2% 0.00 in 399 W/m2
09:19 48.4 °F 40.6 °F 29.99 in NW 9.6 mph 20 mph 74.4% 0.00 in 413 W/m2
09:24 48.7 °F 40.8 °F 29.99 in WNW 10.8 mph 19 mph 74% 0.00 in 429 W/m2
09:29 49 °F 40.7 °F 29.99 in WNW 8.8 mph 18 mph 73% 0.00 in 443 W/m2
09:33 49.3 °F 40.7 °F 29.98 in WNW 10.8 mph 20 mph 72.3% 0.00 in 457 W/m2
09:39 49.3 °F 40.5 °F 29.99 in WNW 10.2 mph 20 mph 71.8% 0.00 in 482 W/m2
09:44 49.4 °F 40.4 °F 29.98 in West 10 mph 19 mph 71% 0.00 in 499 W/m2
09:49 49.6 °F 40.6 °F 29.98 in WNW 10.2 mph 18 mph 70.8% 0.00 in 527 W/m2
09:54 50 °F 40.6 °F 29.98 in WNW 8.4 mph 18 mph 70% 0.00 in 554 W/m2
09:59 50.4 °F 40.9 °F 29.98 in WNW 8.8 mph 17 mph 69.6% 0.00 in 622 W/m2
10:04 50.6 °F 40.9 °F 29.98 in WNW 9.8 mph 18 mph 69% 0.00 in 664 W/m2
10:09 50.4 °F 40.6 °F 29.99 in West 9.3 mph 14 mph 69% 0.00 in 619 W/m2
10:14 50.5 °F 40.6 °F 29.99 in WNW 9.2 mph 17 mph 68.4% 0.00 in 642 W/m2
10:19 50.6 °F 40.1 °F 29.99 in WNW 9.2 mph 21 mph 67.2% 0.00 in 631 W/m2
10:24 50.7 °F 39.9 °F 29.99 in West 11.6 mph 17 mph 66.4% 0.00 in 643 W/m2
10:29 50.7 °F 39.7 °F 29.99 in WNW 9.6 mph 19 mph 66% 0.00 in 726 W/m2
10:34 51.1 °F 39.9 °F 29.99 in WNW 9.8 mph 20 mph 65.6% 0.00 in 726 W/m2
10:39 50.5 °F 38.9 °F 30.00 in WNW 11.4 mph 21 mph 64.2% 0.00 in 232 W/m2
10:44 50.6 °F 39.3 °F 29.99 in WNW 10 mph 21 mph 65% 0.00 in 722 W/m2
10:49 51.3 °F 39.9 °F 29.99 in West 10.2 mph 19 mph 65% 0.00 in 721 W/m2
10:54 51.4 °F 40 °F 29.99 in WNW 8.8 mph 17 mph 65% 0.00 in 796 W/m2
10:59 51.6 °F 40.3 °F 29.99 in WNW 11.7 mph 19 mph 65% 0.00 in 796 W/m2
11:04 52 °F 40.6 °F 29.99 in WNW 8.2 mph 19 mph 64.8% 0.00 in 749 W/m2
11:09 52.3 °F 40.4 °F 29.99 in NW 9 mph 24 mph 63.6% 0.00 in 751 W/m2
11:14 52.3 °F 40.3 °F 29.99 in WNW 11.3 mph 22 mph 63.6% 0.00 in 793 W/m2
11:19 52.7 °F 40.8 °F 29.99 in WNW 12.4 mph 18 mph 64% 0.00 in 833 W/m2
11:24 53.1 °F 41.2 °F 29.99 in WNW 10.3 mph 18 mph 63.8% 0.00 in 867 W/m2
11:29 53 °F 41.1 °F 29.99 in WNW 9.4 mph 17 mph 64% 0.00 in 849 W/m2
11:34 53.1 °F 41.1 °F 29.99 in WNW 9.8 mph 19 mph 63.6% 0.00 in 984 W/m2
11:39 53.2 °F 41.2 °F 29.99 in WNW 11 mph 16 mph 63.8% 0.00 in 984 W/m2
11:44 53.3 °F 41.5 °F 29.99 in NW 9.4 mph 15 mph 64% 0.00 in 380 W/m2
11:49 53.4 °F 41.5 °F 30.00 in WNW 9.6 mph 17 mph 64% 0.00 in 1020 W/m2
11:54 53.1 °F 41.3 °F 30.00 in WNW 8.6 mph 16 mph 64.4% 0.00 in 953 W/m2
11:59 52.8 °F 41.3 °F 30.00 in WNW 8.4 mph 15 mph 65% 0.00 in 911 W/m2
12:04 52.9 °F 41.4 °F 30.00 in WNW 9.3 mph 15 mph 65% 0.00 in 911 W/m2
12:09 53.1 °F 41.1 °F 29.99 in NW 9.8 mph 15 mph 63.6% 0.00 in 773 W/m2
12:12 53.4 °F 40.7 °F 29.99 in West 10 mph 18 mph 62% 0.00 in 786 W/m2
12:19 53.3 °F 40.1 °F 30.00 in WNW 8 mph 16 mph 60.8% 0.00 in 935 W/m2
12:24 53 °F 40.2 °F 30.00 in WNW 9.4 mph 17 mph 61.6% 0.00 in 846 W/m2
12:29 53 °F 40.3 °F 30.00 in NW 8.6 mph 22 mph 62% 0.00 in 944 W/m2
12:34 53.7 °F 40.4 °F 30.00 in WNW 7.3 mph 22 mph 60.4% 0.00 in 1020 W/m2
12:39 54.5 °F 40.4 °F 30.00 in NW 8.2 mph 17 mph 58.8% 0.00 in 754 W/m2
12:44 54.7 °F 40.1 °F 30.00 in WNW 8.8 mph 17 mph 57.8% 0.00 in 1129 W/m2
12:49 54.2 °F 40.1 °F 30.00 in WNW 6.4 mph 14 mph 58.6% 0.00 in 339 W/m2
12:54 54 °F 40.4 °F 30.00 in NW 7.6 mph 14 mph 59.8% 0.00 in 450 W/m2
12:59 53.4 °F 40.2 °F 30.00 in NW 9.8 mph 21 mph 60.6% 0.00 in 279 W/m2
13:04 52.7 °F 40.4 °F 30.00 in NW 9.6 mph 21 mph 63% 0.00 in 276 W/m2
13:09 52.4 °F 39.9 °F 30.00 in WNW 8.2 mph 16 mph 62.4% 0.00 in 895 W/m2
13:14 53.4 °F 40.4 °F 30.00 in WNW 8 mph 19 mph 61.2% 0.00 in 904 W/m2
13:19 53.7 °F 40.8 °F 30.00 in WNW 9.1 mph 17 mph 61.6% 0.00 in 963 W/m2
13:24 53.4 °F 41 °F 30.00 in NW 10.6 mph 17 mph 62.6% 0.00 in 860 W/m2
13:29 54 °F 41.1 °F 30.00 in WNW 7.6 mph 13 mph 61.8% 0.00 in 840 W/m2
13:34 54.3 °F 40.5 °F 30.00 in WNW 10.2 mph 16 mph 59.4% 0.00 in 796 W/m2
13:39 54.3 °F 40 °F 30.00 in WNW 8.8 mph 17 mph 58.4% 0.00 in 867 W/m2
13:43 55 °F 40.1 °F 30.00 in WNW 8 mph 14 mph 57.3% 0.00 in 905 W/m2
13:49 55.4 °F 39.7 °F 30.00 in WNW 8.6 mph 19 mph 55.6% 0.00 in 953 W/m2
13:54 55.5 °F 39.5 °F 30.00 in WNW 6.7 mph 17 mph 54.8% 0.00 in 953 W/m2
13:59 54.8 °F 39.3 °F 30.00 in NW 8 mph 15 mph 55.6% 0.00 in 962 W/m2
14:04 55.1 °F 40 °F 30.00 in WNW 8 mph 16 mph 56.6% 0.00 in 998 W/m2
14:09 54.9 °F 39.4 °F 30.00 in NW 8.6 mph 22 mph 56% 0.00 in 359 W/m2
14:14 54.4 °F 39.2 °F 30.00 in West 5.2 mph 18 mph 56.4% 0.00 in 185 W/m2
14:19 54.2 °F 39.3 °F 30.00 in NW 7.3 mph 18 mph 57.2% 0.00 in 200 W/m2
14:24 54.1 °F 39.7 °F 30.00 in NNW 4.9 mph 12 mph 58% 0.00 in 204 W/m2
14:29 53.8 °F 39.7 °F 30.00 in NNW 8.6 mph 15 mph 59% 0.00 in 193 W/m2
14:34 53.5 °F 39.6 °F 30.00 in NNW 5.6 mph 13 mph 59.2% 0.00 in 227 W/m2
14:39 53.5 °F 39.5 °F 30.00 in NW 4.8 mph 11 mph 59% 0.00 in 234 W/m2
14:44 53.9 °F 39.8 °F 30.00 in NW 5.8 mph 9 mph 59% 0.00 in 336 W/m2
14:49 53.8 °F 39.4 °F 30.00 in NW 6.2 mph 14 mph 58% 0.00 in 805 W/m2
14:54 54.1 °F 39.7 °F 30.00 in North 7.4 mph 16 mph 58% 0.00 in 838 W/m2
14:59 54.8 °F 39.7 °F 30.00 in NNW 5.4 mph 16 mph 56.8% 0.00 in 756 W/m2
15:04 55.6 °F 40.1 °F 30.00 in North 8 mph 17 mph 56% 0.00 in 745 W/m2
15:09 55.5 °F 39 °F 30.00 in NW 8.4 mph 15 mph 53.8% 0.00 in 759 W/m2
15:14 54.7 °F 38.3 °F 30.00 in NNW 7.5 mph 15 mph 54% 0.00 in 715 W/m2
15:19 55.1 °F 38.7 °F 30.00 in NW 10.8 mph 19 mph 53.8% 0.00 in 758 W/m2
15:24 55.5 °F 38.9 °F 29.99 in WNW 3.6 mph 11 mph 53.6% 0.00 in 775 W/m2
15:29 56 °F 39.3 °F 29.99 in NW 8.6 mph 17 mph 53.4% 0.00 in 195 W/m2
15:34 55 °F 38.1 °F 29.99 in WNW 6.4 mph 17 mph 52.8% 0.00 in 694 W/m2
15:39 55.4 °F 38.9 °F 29.99 in WNW 6.4 mph 13 mph 53.8% 0.00 in 738 W/m2
15:44 55.7 °F 39.2 °F 29.99 in NW 5.3 mph 16 mph 53.8% 0.00 in 765 W/m2
15:49 56.5 °F 39.4 °F 29.99 in NW 7.8 mph 16 mph 52.6% 0.00 in 810 W/m2
15:54 57 °F 39 °F 29.99 in North 10.8 mph 23 mph 51% 0.00 in 830 W/m2
15:59 56.5 °F 38 °F 29.99 in NNW 10.8 mph 23 mph 49.6% 0.00 in 780 W/m2
16:04 55.4 °F 38 °F 29.99 in NNW 13 mph 19 mph 51.8% 0.00 in 163 W/m2
16:09 54.4 °F 37.4 °F 30.00 in NW 8.2 mph 17 mph 52.4% 0.00 in 199 W/m2
16:14 54 °F 36.7 °F 30.00 in WNW 7.9 mph 15 mph 51.8% 0.00 in 264 W/m2
16:19 53.4 °F 36.2 °F 30.00 in NW 8 mph 15 mph 51.8% 0.00 in 213 W/m2
16:24 53.3 °F 36.4 °F 30.00 in WNW 6.8 mph 13 mph 52.4% 0.00 in 304 W/m2
16:29 53.2 °F 36.4 °F 30.00 in WNW 7.1 mph 13 mph 53% 0.00 in 559 W/m2
16:34 53.8 °F 37.2 °F 30.00 in West 5.9 mph 13 mph 53.4% 0.00 in 568 W/m2
16:39 54.4 °F 37.7 °F 30.00 in WNW 5.2 mph 11 mph 53.2% 0.00 in 571 W/m2
16:44 54.9 °F 38.7 °F 30.00 in West 4.9 mph 11 mph 54.4% 0.00 in 563 W/m2
16:49 54.4 °F 39.2 °F 30.00 in WNW 5 mph 11 mph 56.4% 0.00 in 239 W/m2
16:54 54.3 °F 39.4 °F 30.00 in WNW 6.6 mph 14 mph 56.8% 0.00 in 374 W/m2
16:59 54.6 °F 39.3 °F 30.00 in NW 7.4 mph 12 mph 56.2% 0.00 in 410 W/m2
17:04 54.8 °F 39.8 °F 30.00 in NW 7.6 mph 11 mph 57% 0.00 in 341 W/m2
17:09 55 °F 39.9 °F 30.00 in NNW 9.2 mph 16 mph 56.6% 0.00 in 413 W/m2
17:14 55 °F 39.4 °F 30.01 in NW 10.5 mph 18 mph 55.6% 0.00 in 287 W/m2
17:19 54.1 °F 39 °F 30.01 in NW 11 mph 19 mph 56.6% 0.00 in 167 W/m2
17:24 53.1 °F 38.9 °F 30.01 in WNW 8.6 mph 19 mph 58.4% 0.00 in 132 W/m2
17:29 52.6 °F 38.5 °F 30.01 in WNW 8.9 mph 16 mph 58.6% 0.00 in 111 W/m2
17:34 51.6 °F 37.5 °F 30.01 in West 9.2 mph 17 mph 58.4% 0.00 in 109 W/m2
17:39 50.8 °F 37.4 °F 30.01 in WNW 7.8 mph 14 mph 59.8% 0.00 in 128 W/m2
17:44 51 °F 37.7 °F 30.01 in WNW 6.6 mph 13 mph 60.2% 0.00 in 381 W/m2
17:49 51 °F 38.3 °F 30.01 in West 5.4 mph 13 mph 61.6% 0.00 in 306 W/m2
17:54 50.7 °F 38.5 °F 30.02 in West 8 mph 12 mph 62.8% 0.00 in 255 W/m2
17:59 50.6 °F 38.8 °F 30.02 in WNW 5.7 mph 11 mph 63.6% 0.00 in 392 W/m2
18:04 51.3 °F 39.9 °F 30.02 in West 6.6 mph 10 mph 65% 0.00 in 376 W/m2
18:09 51.3 °F 40.2 °F 30.02 in WNW 7 mph 16 mph 65.8% 0.00 in 357 W/m2
18:14 51 °F 40.5 °F 30.02 in West 6.8 mph 16 mph 67.4% 0.00 in 301 W/m2
18:19 51.1 °F 40.8 °F 30.02 in West 8.7 mph 13 mph 68% 0.00 in 267 W/m2
18:24 51.2 °F 40.9 °F 30.02 in WNW 6 mph 14 mph 68% 0.00 in 248 W/m2
18:29 51.4 °F 41.2 °F 30.02 in West 5.2 mph 11 mph 68% 0.00 in 239 W/m2
18:34 51.7 °F 41.5 °F 30.02 in WNW 7.8 mph 13 mph 68% 0.00 in 211 W/m2
18:39 51.2 °F 41 °F 30.02 in WNW 7.2 mph 13 mph 68.2% 0.00 in 51 W/m2
18:44 50.9 °F 40.7 °F 30.02 in West 5.2 mph 11 mph 68.2% 0.00 in 95 W/m2
18:49 51.1 °F 41.2 °F 30.02 in WNW 5 mph 10 mph 69% 0.00 in 153 W/m2
18:54 51.4 °F 41.4 °F 30.03 in West 3.6 mph 12 mph 68.6% 0.00 in 139 W/m2
18:59 51.9 °F 41.9 °F 30.03 in West 2.9 mph 7 mph 68.8% 0.00 in 151 W/m2
19:04 52.1 °F 41.8 °F 30.03 in WNW 3.3 mph 7 mph 68% 0.00 in 179 W/m2
19:09 52.1 °F 41.8 °F 30.03 in WNW 4.1 mph 8 mph 68% 0.00 in 102 W/m2
19:14 52 °F 41.7 °F 30.03 in WNW 4.8 mph 8 mph 68% 0.00 in 86 W/m2
19:19 52.2 °F 41.9 °F 30.03 in WNW 4.2 mph 9 mph 68% 0.00 in 74 W/m2
19:24 52.1 °F 41.8 °F 30.03 in WNW 4.4 mph 9 mph 68% 0.00 in 67 W/m2
19:29 52 °F 41.7 °F 30.03 in WNW 3.4 mph 6 mph 68% 0.00 in 65 W/m2
19:34 51.7 °F 41.2 °F 30.03 in WNW 4.8 mph 9 mph 67.4% 0.00 in 35 W/m2
19:39 51.4 °F 41.1 °F 30.03 in WNW 3.6 mph 7 mph 67.8% 0.00 in 25 W/m2
19:44 51.3 °F 41 °F 30.04 in WNW 3.7 mph 7 mph 68% 0.00 in 19 W/m2
19:49 51.1 °F 40.6 °F 30.04 in WNW 3.2 mph 6 mph 67.2% 0.00 in 18 W/m2
19:54 50.7 °F 39.8 °F 30.04 in WNW 2.5 mph 6 mph 66.2% 0.00 in 14 W/m2
19:59 50.4 °F 39.8 °F 30.04 in WNW 1.7 mph 4 mph 67% 0.00 in 12 W/m2
20:04 50.2 °F 39.6 °F 30.04 in WNW 1.7 mph 4 mph 67% 0.00 in 9 W/m2
20:09 50 °F 39.8 °F 30.04 in WNW 0.4 mph 3 mph 67.6% 0.00 in 7 W/m2
20:14 49.8 °F 40.1 °F 30.04 in WNW 0.7 mph 3 mph 69% 0.00 in 0 W/m2
20:19 49.5 °F 39.9 °F 30.05 in WNW 1.6 mph 4 mph 69.4% 0.00 in 0 W/m2
20:24 49.2 °F 39.5 °F 30.05 in WNW 1.6 mph 4 mph 69% 0.00 in 0 W/m2
20:29 48.7 °F 39 °F 30.05 in WNW 0.7 mph 2 mph 69% 0.00 in 0 W/m2
20:34 48.4 °F 38.7 °F 30.05 in WNW 1.8 mph 4 mph 69.2% 0.00 in 0 W/m2
20:39 47.8 °F 38.5 °F 30.06 in WNW 2.9 mph 5 mph 70% 0.00 in 0 W/m2
20:44 47.3 °F 38.3 °F 30.06 in WNW 3.6 mph 5 mph 71% 0.00 in 0 W/m2
20:49 47.1 °F 38.4 °F 30.06 in NW 3.4 mph 5 mph 71.8% 0.00 in 0 W/m2
20:54 46.9 °F 38.3 °F 30.06 in NNW 3.4 mph 5 mph 72% 0.00 in 0 W/m2
20:59 46.8 °F 38.4 °F 30.06 in NNW 3.1 mph 5 mph 72.6% 0.00 in 0 W/m2
21:04 46.6 °F 38.5 °F 30.07 in NNW 2.9 mph 5 mph 73% 0.00 in 0 W/m2
21:09 46.4 °F 38.3 °F 30.07 in NNW 2.7 mph 5 mph 73% 0.00 in 0 W/m2
21:14 46.2 °F 38.1 °F 30.07 in NW 2.4 mph 6 mph 73% 0.00 in 0 W/m2
21:19 46 °F 37.9 °F 30.07 in NW 2.8 mph 6 mph 73% 0.00 in 0 W/m2
21:24 46 °F 37.9 °F 30.07 in NW 2.4 mph 5 mph 73% 0.00 in 0 W/m2
21:29 46 °F 37.9 °F 30.08 in NW 3.2 mph 5 mph 73% 0.00 in 0 W/m2
21:34 46.1 °F 38 °F 30.08 in NW 1.7 mph 4 mph 73% 0.00 in 0 W/m2
21:39 46.2 °F 38.1 °F 30.08 in NW 1.7 mph 5 mph 73% 0.00 in 0 W/m2
21:44 46.1 °F 38 °F 30.08 in NW 0.9 mph 3 mph 73% 0.00 in 0 W/m2
21:49 46 °F 38.2 °F 30.08 in NW 1.7 mph 4 mph 73.8% 0.00 in 0 W/m2
21:54 46 °F 38.3 °F 30.09 in NW 1.4 mph 3 mph 74% 0.00 in 0 W/m2
21:59 45.9 °F 38.2 °F 30.09 in NW 2.1 mph 4 mph 74.4% 0.00 in 0 W/m2
22:04 45.8 °F 38.3 °F 30.09 in NW 1.4 mph 3 mph 75% 0.00 in 0 W/m2
22:09 45.5 °F 38.2 °F 30.09 in NW 1.5 mph 3 mph 75.2% 0.00 in 0 W/m2
22:14 45.3 °F 38.1 °F 30.09 in NW 2.4 mph 4 mph 75.8% 0.00 in 0 W/m2
22:19 45.1 °F 37.9 °F 30.09 in NW 1.6 mph 3 mph 76% 0.00 in 0 W/m2
22:24 45 °F 37.9 °F 30.09 in NW 1.1 mph 3 mph 76.4% 0.00 in 0 W/m2
22:29 44.8 °F 37.9 °F 30.09 in NW 1.7 mph 3 mph 77% 0.00 in 0 W/m2
22:34 44.4 °F 37.6 °F 30.10 in NW 2 mph 4 mph 77% 0.00 in 0 W/m2
22:39 44.3 °F 37.6 °F 30.10 in NW 1.5 mph 4 mph 77% 0.00 in 0 W/m2
22:44 44.2 °F 37.6 °F 30.10 in NW 0.9 mph 3 mph 77.6% 0.00 in 0 W/m2
22:49 44 °F 37.5 °F 30.10 in NW 0.5 mph 2 mph 78% 0.00 in 0 W/m2
22:54 43.9 °F 37.4 °F 30.10 in Calm   1 mph 78% 0.00 in 0 W/m2
22:59 43.6 °F 37.1 °F 30.10 in Calm     78% 0.00 in 0 W/m2
23:04 43.3 °F 36.9 °F 30.10 in Calm     78% 0.00 in 0 W/m2
23:09 43.2 °F 36.7 °F 30.10 in Calm     78% 0.00 in 0 W/m2
23:14 43.2 °F 36.7 °F 30.10 in NW 0.6 mph 2 mph 78% 0.00 in 0 W/m2
23:19 43 °F 36.7 °F 30.10 in NW 0.7 mph 3 mph 78% 0.00 in 0 W/m2
23:24 42.9 °F 36.6 °F 30.10 in NW 1.4 mph 3 mph 78% 0.00 in 0 W/m2
23:29 42.7 °F 36.4 °F 30.10 in NW 2.5 mph 4 mph 78% 0.00 in 0 W/m2
23:33 42.6 °F 36.5 °F 30.10 in WNW 2.5 mph 6 mph 78.8% 0.00 in 0 W/m2
23:39 42.5 °F 36.4 °F 30.10 in WNW 2.3 mph 5 mph 79% 0.00 in 0 W/m2
23:44 42.5 °F 36.4 °F 30.10 in WNW 3 mph 4 mph 79% 0.00 in 0 W/m2
23:49 42.4 °F 36.3 °F 30.10 in NW 2.9 mph 5 mph 79% 0.00 in 0 W/m2
23:54 42.4 °F 36.3 °F 30.10 in NW 2.9 mph 5 mph 78.8% 0.00 in 0 W/m2
23:59 42.3 °F 36 °F 30.10 in NW 3.2 mph 5 mph 78% 0.00 in 0 W/m2
Bath Spa Weather
Compliments of Weather Underground - 2 mb